createdAt,value
2023-08-29T00:00:10.777Z,94714.03
2023-08-29T00:02:42.332Z,94707.09
2023-08-29T00:05:10.286Z,94708.41
2023-08-29T00:07:37.581Z,94708.94
2023-08-29T00:10:04.818Z,94713.72
2023-08-29T00:12:33.159Z,94709.50
2023-08-29T00:15:06.917Z,94716.13
2023-08-29T00:17:33.367Z,94723.09
2023-08-29T00:20:00.191Z,94724.69
2023-08-29T00:22:26.614Z,94725.19
2023-08-29T00:24:57.595Z,94722.25
2023-08-29T00:27:24.413Z,94738.47
2023-08-29T00:29:51.125Z,94737.16
2023-08-29T00:32:17.929Z,94747.06
2023-08-29T00:34:44.281Z,94750.81
2023-08-29T00:37:11.140Z,94750.00
2023-08-29T00:39:37.566Z,94743.88
2023-08-29T00:42:04.286Z,94738.53
2023-08-29T00:44:31.053Z,94741.22
2023-08-29T00:46:58.439Z,94747.84
2023-08-29T00:49:28.488Z,94763.28
2023-08-29T00:51:55.117Z,94760.63
2023-08-29T00:54:22.465Z,94759.56
2023-08-29T00:56:49.625Z,94755.03
2023-08-29T00:59:16.456Z,94761.97
2023-08-29T01:01:45.323Z,94763.31
2023-08-29T01:04:11.793Z,94766.25
2023-08-29T01:06:41.969Z,94764.59
2023-08-29T01:09:08.791Z,94770.16
2023-08-29T01:12:13.224Z,94775.72
2023-08-29T01:14:56.698Z,94769.59
2023-08-29T01:17:32.821Z,94759.22
2023-08-29T01:19:59.743Z,94753.66
2023-08-29T01:22:52.515Z,94755.50
2023-08-29T01:25:53.254Z,94744.56
2023-08-29T01:28:21.563Z,94750.69
2023-08-29T01:30:48.492Z,94741.88
2023-08-29T01:33:15.006Z,94740.78
2023-08-29T01:35:48.544Z,94739.97
2023-08-29T01:38:18.651Z,94741.28
2023-08-29T01:40:46.330Z,94734.41
2023-08-29T01:43:12.958Z,94738.66
2023-08-29T01:45:39.908Z,94742.16
2023-08-29T01:48:06.867Z,94737.66
2023-08-29T01:50:36.037Z,94742.16
2023-08-29T01:53:02.833Z,94724.03
2023-08-29T01:55:29.843Z,94729.00
2023-08-29T01:57:58.934Z,94729.00
2023-08-29T02:00:25.668Z,94716.50
2023-08-29T02:02:52.707Z,94725.34
2023-08-29T02:05:19.199Z,94721.34
2023-08-29T02:07:46.058Z,94711.72
2023-08-29T02:10:12.473Z,94723.44
2023-08-29T02:12:38.850Z,94719.72
2023-08-29T02:15:07.778Z,94715.75
2023-08-29T02:17:34.533Z,94721.06
2023-08-29T02:20:01.430Z,94712.56
2023-08-29T02:22:27.830Z,94712.81
2023-08-29T02:24:54.710Z,94709.34
2023-08-29T02:27:21.082Z,94710.88
2023-08-29T02:29:47.446Z,94708.72
2023-08-29T02:32:15.631Z,94706.31
2023-08-29T02:34:42.000Z,94704.47
2023-08-29T02:37:08.781Z,94702.34
2023-08-29T02:39:35.194Z,94701.47
2023-08-29T02:42:01.971Z,94710.28
2023-08-29T02:44:28.336Z,94714.75
2023-08-29T02:46:54.731Z,94705.19
2023-08-29T02:49:21.502Z,94703.59
2023-08-29T02:51:47.927Z,94711.00
2023-08-29T02:54:14.768Z,94709.75
2023-08-29T02:56:41.156Z,94715.63
2023-08-29T02:59:07.928Z,94715.03
2023-08-29T03:01:34.295Z,94713.66
2023-08-29T03:04:00.959Z,94720.59
2023-08-29T03:06:27.811Z,94717.13
2023-08-29T03:08:54.169Z,94718.47
2023-08-29T03:11:20.980Z,94724.84
2023-08-29T03:13:47.382Z,94730.47
2023-08-29T03:16:18.068Z,94729.94
2023-08-29T03:18:46.279Z,94731.06
2023-08-29T03:21:12.713Z,94731.28
2023-08-29T03:23:39.581Z,94735.22
2023-08-29T03:26:10.445Z,94724.03
2023-08-29T03:28:38.752Z,94724.56
2023-08-29T03:31:09.285Z,94728.34
2023-08-29T03:33:36.279Z,94727.28
2023-08-29T03:36:03.886Z,94725.94
2023-08-29T03:38:30.962Z,94726.13
2023-08-29T03:40:58.159Z,94720.81
2023-08-29T03:43:26.744Z,94720.81
2023-08-29T03:46:04.045Z,94716.59
2023-08-29T03:48:32.088Z,94715.53
2023-08-29T03:50:59.935Z,94716.81
2023-08-29T03:53:26.412Z,94709.03
2023-08-29T03:55:53.314Z,94717.59
2023-08-29T03:58:19.733Z,94720.81
2023-08-29T04:00:46.312Z,94726.16
2023-08-29T04:03:13.200Z,94721.16
2023-08-29T04:05:39.869Z,94723.50
2023-08-29T04:08:07.731Z,94721.38
2023-08-29T04:10:38.828Z,94725.69
2023-08-29T04:13:06.438Z,94732.09
2023-08-29T04:15:34.506Z,94722.41
2023-08-29T04:18:01.989Z,94731.72
2023-08-29T04:20:30.332Z,94729.81
2023-08-29T04:22:56.981Z,94740.00
2023-08-29T04:25:23.703Z,94744.00
2023-08-29T04:27:51.538Z,94746.97
2023-08-29T04:30:18.844Z,94749.88
2023-08-29T04:32:45.370Z,94756.19
2023-08-29T04:35:11.794Z,94748.94
2023-08-29T04:37:38.521Z,94753.00
2023-08-29T04:40:08.783Z,94763.75
2023-08-29T04:42:35.615Z,94751.63
2023-08-29T04:45:05.224Z,94759.66
2023-08-29T04:47:32.395Z,94762.41
2023-08-29T04:50:00.262Z,94761.28
2023-08-29T04:52:27.675Z,94765.28
2023-08-29T04:54:57.695Z,94770.34
2023-08-29T04:57:24.110Z,94767.69
2023-08-29T04:59:51.033Z,94775.72
2023-08-29T05:02:18.114Z,94777.81
2023-08-29T05:04:44.828Z,94771.75
2023-08-29T05:07:11.232Z,94768.78
2023-08-29T05:09:37.734Z,94760.97
2023-08-29T05:12:05.143Z,94765.47
2023-08-29T05:14:31.551Z,94773.28
2023-08-29T05:16:57.914Z,94775.72
2023-08-29T05:19:24.342Z,94764.69
2023-08-29T05:21:50.710Z,94775.84
2023-08-29T05:24:17.085Z,94777.66
2023-08-29T05:26:45.925Z,94773.44
2023-08-29T05:29:12.712Z,94775.53
2023-08-29T05:31:39.725Z,94777.72
2023-08-29T05:34:06.578Z,94773.13
2023-08-29T05:36:33.040Z,94776.94
2023-08-29T05:39:01.068Z,94775.53
2023-08-29T05:41:30.307Z,94780.34
2023-08-29T05:43:56.705Z,94789.47
2023-08-29T05:46:23.158Z,94781.44
2023-08-29T05:48:49.974Z,94780.41
2023-08-29T05:51:16.347Z,94788.94
2023-08-29T05:53:43.114Z,94787.72
2023-08-29T05:56:10.036Z,94795.16
2023-08-29T05:58:36.778Z,94796.41
2023-08-29T06:01:07.362Z,94802.00
2023-08-29T06:03:35.983Z,94799.13
2023-08-29T06:06:04.505Z,94795.59
2023-08-29T06:08:34.312Z,94814.47
2023-08-29T06:11:04.740Z,94822.25
2023-08-29T06:13:31.151Z,94813.47
2023-08-29T06:15:57.560Z,94816.88
2023-08-29T06:18:24.359Z,94816.38
2023-08-29T06:20:51.769Z,94819.63
2023-08-29T06:23:19.000Z,94820.41
2023-08-29T06:25:46.453Z,94818.22
2023-08-29T06:28:12.896Z,94835.94
2023-08-29T06:30:39.414Z,94835.25
2023-08-29T06:33:08.262Z,94827.53
2023-08-29T06:35:40.791Z,94828.38
2023-08-29T06:38:09.000Z,94841.88
2023-08-29T06:40:36.362Z,94836.56
2023-08-29T06:43:03.052Z,94845.13
2023-08-29T06:45:30.100Z,94843.38
2023-08-29T06:47:56.876Z,94842.88
2023-08-29T06:50:23.290Z,94847.19
2023-08-29T06:52:50.184Z,94860.78
2023-08-29T06:55:17.442Z,94855.94
2023-08-29T06:57:43.844Z,94861.03
2023-08-29T07:00:12.352Z,94859.69
2023-08-29T07:02:38.890Z,94859.16
2023-08-29T07:05:06.026Z,94866.88
2023-08-29T07:07:32.764Z,94862.94
2023-08-29T07:09:59.229Z,94854.09
2023-08-29T07:12:25.790Z,94860.00
2023-08-29T07:14:52.558Z,94857.63
2023-08-29T07:17:19.066Z,94859.78
2023-08-29T07:19:45.687Z,94858.50
2023-08-29T07:22:23.576Z,94857.97
2023-08-29T07:24:51.934Z,94856.69
2023-08-29T07:27:19.139Z,94863.09
2023-08-29T07:29:45.645Z,94865.28
2023-08-29T07:32:12.214Z,94867.19
2023-08-29T07:34:41.640Z,94874.44
2023-08-29T07:37:08.962Z,94869.63
2023-08-29T07:39:35.783Z,94875.53
2023-08-29T07:42:03.129Z,94874.47
2023-08-29T07:44:30.570Z,94868.09
2023-08-29T07:47:13.483Z,94868.88
2023-08-29T07:49:42.146Z,94863.56
2023-08-29T07:52:08.634Z,94859.06
2023-08-29T07:54:35.041Z,94855.22
2023-08-29T07:57:01.619Z,94851.44
2023-08-29T07:59:27.995Z,94845.03
2023-08-29T08:01:55.098Z,94848.25
2023-08-29T08:04:21.828Z,94839.75
2023-08-29T08:06:48.270Z,94835.19
2023-08-29T08:09:15.210Z,94852.81
2023-08-29T08:11:42.776Z,94848.28
2023-08-29T08:14:09.238Z,94852.44
2023-08-29T08:16:35.738Z,94844.03
2023-08-29T08:19:02.595Z,94847.50
2023-08-29T08:21:28.973Z,94844.53
2023-08-29T08:23:56.085Z,94848.38
2023-08-29T08:26:22.872Z,94850.28
2023-08-29T08:28:50.171Z,94845.72
2023-08-29T08:31:16.671Z,94853.19
2023-08-29T08:33:43.634Z,94847.06
2023-08-29T08:36:10.143Z,94838.25
2023-08-29T08:38:36.950Z,94843.03
2023-08-29T08:41:05.478Z,94842.84
2023-08-29T08:43:32.751Z,94845.28
2023-08-29T08:45:59.794Z,94840.50
2023-08-29T08:48:26.976Z,94847.09
2023-08-29T08:50:53.790Z,94842.22
2023-08-29T08:53:23.618Z,94837.69
2023-08-29T08:55:53.735Z,94835.56
2023-08-29T08:58:20.543Z,94835.06
2023-08-29T09:00:48.414Z,94838.38
2023-08-29T09:03:15.132Z,94846.59
2023-08-29T09:05:42.816Z,94847.41
2023-08-29T09:08:10.070Z,94845.50
2023-08-29T09:10:40.723Z,94838.88
2023-08-29T09:13:07.300Z,94838.38
2023-08-29T09:15:35.616Z,94845.88
2023-08-29T09:18:02.057Z,94841.81
2023-08-29T09:20:30.303Z,94840.47
2023-08-29T09:22:57.473Z,94847.44
2023-08-29T09:25:27.206Z,94848.16
2023-08-29T09:27:54.251Z,94850.63
2023-08-29T09:30:21.293Z,94853.31
2023-08-29T09:32:52.467Z,94857.78
2023-08-29T09:35:26.444Z,94853.03
2023-08-29T09:37:56.215Z,94846.91
2023-08-29T09:42:59.574Z,94845.31
2023-08-29T09:45:29.195Z,94850.16
2023-08-29T09:47:55.658Z,94854.13
2023-08-29T09:50:22.960Z,94849.59
2023-08-29T09:52:52.402Z,94859.22
2023-08-29T09:55:21.003Z,94860.28
2023-08-29T09:57:52.604Z,94858.94
2023-08-29T10:00:22.994Z,94854.69
2023-08-29T10:02:55.935Z,94868.00
2023-08-29T10:05:29.257Z,94866.44
2023-08-29T10:07:59.070Z,94865.63
2023-08-29T10:10:27.027Z,94861.91
2023-08-29T10:12:55.561Z,94853.88
2023-08-29T10:15:22.917Z,94861.34
2023-08-29T10:17:50.170Z,94867.25
2023-08-29T10:20:19.438Z,94863.50
2023-08-29T10:22:49.761Z,94866.69
2023-08-29T10:25:19.702Z,94862.38
2023-08-29T10:27:48.048Z,94866.66
2023-08-29T10:30:16.161Z,94861.53
2023-08-29T10:32:44.336Z,94859.16
2023-08-29T10:35:21.921Z,94859.63
2023-08-29T10:37:53.309Z,94863.44
2023-08-29T10:40:20.378Z,94841.28
2023-08-29T10:42:56.127Z,94842.13
2023-08-29T10:45:23.722Z,94843.69
2023-08-29T10:47:51.007Z,94833.00
2023-08-29T10:50:20.633Z,94833.53
2023-08-29T10:52:48.321Z,94846.09
2023-08-29T10:55:21.715Z,94835.63
2023-08-29T10:57:49.887Z,94838.78
2023-08-29T11:00:42.472Z,94834.00
2023-08-29T11:03:10.142Z,94833.91
2023-08-29T11:05:40.266Z,94834.34
2023-08-29T11:08:21.692Z,94842.03
2023-08-29T11:11:13.260Z,94834.91
2023-08-29T11:13:57.680Z,94832.22
2023-08-29T11:16:25.047Z,94843.78
2023-08-29T11:19:11.929Z,94843.00
2023-08-29T11:21:40.213Z,94837.66
2023-08-29T11:26:45.429Z,94835.97
2023-08-29T11:29:12.621Z,94837.72
2023-08-29T11:31:44.418Z,94842.59
2023-08-29T11:34:20.118Z,94839.53
2023-08-29T11:36:49.947Z,94834.28
2023-08-29T11:39:19.868Z,94837.66
2023-08-29T11:42:05.039Z,94838.06
2023-08-29T11:45:16.456Z,94834.22
2023-08-29T11:47:24.976Z,94827.28
2023-08-29T11:49:55.508Z,94829.72
2023-08-29T11:52:22.740Z,94827.66
2023-08-29T11:54:57.541Z,94819.44
2023-08-29T11:57:24.840Z,94824.34
2023-08-29T11:59:53.253Z,94824.00
2023-08-29T12:02:25.056Z,94818.31
2023-08-29T12:04:56.934Z,94816.47
2023-08-29T12:07:25.369Z,94816.38
2023-08-29T12:09:54.096Z,94823.13
2023-08-29T12:12:32.127Z,94820.34
2023-08-29T12:14:58.947Z,94819.81
2023-08-29T12:17:40.621Z,94822.66
2023-08-29T12:20:14.014Z,94825.84
2023-08-29T12:22:49.545Z,94827.66
2023-08-29T12:25:16.918Z,94829.59
2023-08-29T12:27:45.753Z,94838.69
2023-08-29T12:30:17.270Z,94827.16
2023-08-29T12:32:48.256Z,94829.50
2023-08-29T12:35:18.299Z,94832.84
2023-08-29T12:37:45.669Z,94832.22
2023-08-29T12:40:14.163Z,94836.84
2023-08-29T12:42:44.178Z,94834.63
2023-08-29T12:45:11.566Z,94828.75
2023-08-29T12:47:39.134Z,94829.66
2023-08-29T12:50:06.637Z,94831.97
2023-08-29T12:52:34.098Z,94836.66
2023-08-29T12:55:01.269Z,94844.91
2023-08-29T12:57:28.630Z,94845.72
2023-08-29T12:59:55.767Z,94848.97
2023-08-29T13:02:23.878Z,94855.47
2023-08-29T13:04:50.516Z,94860.47
2023-08-29T13:07:17.478Z,94863.44
2023-08-29T13:09:44.685Z,94858.19
2023-08-29T13:12:11.249Z,94862.75
2023-08-29T13:14:40.218Z,94859.78
2023-08-29T13:17:08.926Z,94853.69
2023-08-29T13:19:38.106Z,94843.22
2023-08-29T13:22:07.680Z,94848.97
2023-08-29T13:24:37.497Z,94843.97
2023-08-29T13:27:04.782Z,94854.19
2023-08-29T13:29:33.016Z,94852.66
2023-08-29T13:32:00.117Z,94854.78
2023-08-29T13:34:26.811Z,94848.78
2023-08-29T13:36:53.410Z,94852.03
2023-08-29T13:39:19.847Z,94855.16
2023-08-29T13:41:46.655Z,94840.03
2023-08-29T13:44:13.117Z,94845.66
2023-08-29T13:46:41.477Z,94842.88
2023-08-29T13:49:10.134Z,94846.28
2023-08-29T13:51:36.506Z,94849.22
2023-08-29T13:54:04.753Z,94847.59
2023-08-29T13:56:31.260Z,94850.22
2023-08-29T13:58:58.915Z,94855.50
2023-08-29T14:01:25.845Z,94847.78
2023-08-29T14:03:52.368Z,94843.25
2023-08-29T14:06:18.903Z,94850.53
2023-08-29T14:08:45.393Z,94849.41
2023-08-29T14:11:12.224Z,94853.94
2023-08-29T14:13:38.664Z,94848.50
2023-08-29T14:16:05.284Z,94845.75
2023-08-29T14:18:32.770Z,94857.44
2023-08-29T14:20:59.180Z,94854.50
2023-08-29T14:23:26.197Z,94856.13
2023-08-29T14:25:52.962Z,94865.81
2023-08-29T14:28:19.816Z,94870.03
2023-08-29T14:30:47.642Z,94874.59
2023-08-29T14:33:15.075Z,94875.50
2023-08-29T14:35:42.687Z,94873.00
2023-08-29T14:38:09.485Z,94866.56
2023-08-29T14:40:36.665Z,94863.78
2023-08-29T14:43:05.372Z,94866.63
2023-08-29T14:45:31.905Z,94860.94
2023-08-29T14:47:58.487Z,94870.00
2023-08-29T14:50:26.031Z,94858.19
2023-08-29T14:52:55.463Z,94860.06
2023-08-29T14:55:24.164Z,94861.19
2023-08-29T14:57:50.641Z,94861.47
2023-08-29T15:00:18.180Z,94863.53
2023-08-29T15:02:45.936Z,94861.16
2023-08-29T15:05:13.349Z,94857.47
2023-08-29T15:07:41.129Z,94855.81
2023-08-29T15:10:08.916Z,94866.75
2023-08-29T15:12:35.333Z,94864.63
2023-08-29T15:15:02.730Z,94868.88
2023-08-29T15:17:30.820Z,94867.31
2023-08-29T15:19:58.439Z,94863.53
2023-08-29T15:22:25.300Z,94864.84
2023-08-29T15:24:52.410Z,94868.31
2023-08-29T15:27:19.105Z,94869.41
2023-08-29T15:29:45.716Z,94863.75
2023-08-29T15:32:12.684Z,94866.69
2023-08-29T15:34:39.158Z,94875.25
2023-08-29T15:37:06.223Z,94872.06
2023-08-29T15:39:34.039Z,94873.72
2023-08-29T15:42:00.781Z,94881.03
2023-08-29T15:44:32.728Z,94867.44
2023-08-29T15:46:59.196Z,94858.06
2023-08-29T15:49:26.137Z,94858.88
2023-08-29T15:51:52.523Z,94860.41
2023-08-29T15:54:19.068Z,94859.31
2023-08-29T15:56:45.773Z,94865.47
2023-08-29T15:59:13.511Z,94872.66
2023-08-29T16:01:39.926Z,94876.41
2023-08-29T16:04:06.973Z,94883.56
2023-08-29T16:06:34.267Z,94879.06
2023-08-29T16:09:01.321Z,94884.97
2023-08-29T16:11:28.399Z,94882.88
2023-08-29T16:13:54.896Z,94876.69
2023-08-29T16:16:21.655Z,94887.22
2023-08-29T16:18:48.091Z,94881.97
2023-08-29T16:21:17.179Z,94878.19
2023-08-29T16:23:46.729Z,94878.91
2023-08-29T16:26:17.774Z,94877.88
2023-08-29T16:28:44.562Z,94887.94
2023-08-29T16:31:11.130Z,94874.63
2023-08-29T16:33:37.704Z,94874.88
2023-08-29T16:36:05.081Z,94870.06
2023-08-29T16:38:31.850Z,94880.13
2023-08-29T16:40:59.524Z,94879.34
2023-08-29T16:43:27.502Z,94879.00
2023-08-29T16:45:54.044Z,94876.94
2023-08-29T16:48:20.609Z,94879.38
2023-08-29T16:50:48.436Z,94879.63
2023-08-29T16:53:15.445Z,94876.16
2023-08-29T16:55:42.368Z,94881.25
2023-08-29T16:58:09.220Z,94879.38
2023-08-29T17:00:36.233Z,94876.16
2023-08-29T17:03:11.086Z,94880.97
2023-08-29T17:05:37.992Z,94881.00
2023-08-29T17:08:06.468Z,94878.59
2023-08-29T17:10:33.518Z,94877.31
2023-08-29T17:13:00.701Z,94876.28
2023-08-29T17:15:27.351Z,94879.47
2023-08-29T17:17:53.795Z,94872.50
2023-08-29T17:20:20.942Z,94885.63
2023-08-29T17:22:49.363Z,94879.75
2023-08-29T17:25:16.019Z,94877.91
2023-08-29T17:27:42.585Z,94884.31
2023-08-29T17:30:09.744Z,94879.50
2023-08-29T17:32:36.230Z,94875.75
2023-08-29T17:35:02.675Z,94881.63
2023-08-29T17:37:29.574Z,94879.25
2023-08-29T17:39:55.967Z,94878.47
2023-08-29T17:42:22.435Z,94882.72
2023-08-29T17:44:50.864Z,94878.97
2023-08-29T17:47:17.770Z,94890.44
2023-08-29T17:49:44.322Z,94889.66
2023-08-29T17:52:11.396Z,94892.59
2023-08-29T17:54:38.242Z,94889.13
2023-08-29T17:57:04.696Z,94892.31
2023-08-29T17:59:31.511Z,94888.59
2023-08-29T18:01:57.940Z,94890.97
2023-08-29T18:04:24.796Z,94889.13
2023-08-29T18:06:51.220Z,94889.09
2023-08-29T18:09:19.236Z,94887.50
2023-08-29T18:11:46.251Z,94887.50
2023-08-29T18:14:12.720Z,94881.06
2023-08-29T18:16:39.624Z,94889.34
2023-08-29T18:19:06.045Z,94889.59
2023-08-29T18:21:32.969Z,94883.19
2023-08-29T18:23:59.390Z,94885.59
2023-08-29T18:26:26.236Z,94889.06
2023-08-29T18:28:52.968Z,94889.56
2023-08-29T18:31:19.661Z,94886.38
2023-08-29T18:33:46.558Z,94882.41
2023-08-29T18:36:13.093Z,94882.91
2023-08-29T18:38:39.677Z,94885.84
2023-08-29T18:41:06.523Z,94886.88
2023-08-29T18:43:32.941Z,94893.56
2023-08-29T18:45:59.966Z,94895.94
2023-08-29T18:48:26.565Z,94885.50
2023-08-29T18:50:53.274Z,94886.34
2023-08-29T18:53:21.149Z,94890.34
2023-08-29T18:55:47.941Z,94898.63
2023-08-29T18:58:14.628Z,94892.69
2023-08-29T19:00:43.811Z,94894.84
2023-08-29T19:03:11.087Z,94895.94
2023-08-29T19:05:39.871Z,94897.50
2023-08-29T19:08:06.975Z,94896.97
2023-08-29T19:10:33.709Z,94903.66
2023-08-29T19:13:01.064Z,94900.69
2023-08-29T19:15:28.003Z,94898.84
2023-08-29T19:17:54.531Z,94897.50
2023-08-29T19:20:20.991Z,94890.03
2023-08-29T19:22:47.692Z,94893.78
2023-08-29T19:25:14.606Z,94892.19
2023-08-29T19:27:40.981Z,94886.59
2023-08-29T19:30:09.925Z,94892.69
2023-08-29T19:32:36.997Z,94892.41
2023-08-29T19:35:05.040Z,94887.88
2023-08-29T19:37:32.303Z,94901.75
2023-08-29T19:39:58.711Z,94892.44
2023-08-29T19:42:25.639Z,94893.72
2023-08-29T19:44:52.085Z,94887.88
2023-08-29T19:47:20.026Z,94887.59
2023-08-29T19:49:48.793Z,94886.78
2023-08-29T19:52:15.247Z,94886.22
2023-08-29T19:54:42.104Z,94886.00
2023-08-29T19:57:08.562Z,94876.09
2023-08-29T19:59:36.745Z,94880.38
2023-08-29T20:02:03.292Z,94869.44
2023-08-29T20:04:29.668Z,94873.41
2023-08-29T20:06:56.057Z,94876.66
2023-08-29T20:09:23.523Z,94877.97
2023-08-29T20:11:50.379Z,94882.19
2023-08-29T20:14:16.729Z,94879.53
2023-08-29T20:16:43.629Z,94872.88
2023-08-29T20:19:10.644Z,94877.16
2023-08-29T20:21:37.066Z,94872.88
2023-08-29T20:24:04.019Z,94867.56
2023-08-29T20:26:31.959Z,94874.19
2023-08-29T20:29:00.577Z,94875.00
2023-08-29T20:31:27.297Z,94883.28
2023-08-29T20:33:53.771Z,94879.00
2023-08-29T20:36:20.161Z,94882.19
2023-08-29T20:38:46.514Z,94880.84
2023-08-29T20:41:13.077Z,94884.88
2023-08-29T20:43:39.512Z,94879.00
2023-08-29T20:46:05.907Z,94883.78
2023-08-29T20:48:32.785Z,94881.13
2023-08-29T20:51:04.582Z,94881.94
2023-08-29T20:53:33.096Z,94882.50
2023-08-29T20:55:59.528Z,94885.13
2023-08-29T20:58:26.242Z,94892.34
2023-08-29T21:00:57.659Z,94892.84
2023-08-29T21:03:24.598Z,94885.84
2023-08-29T21:05:51.179Z,94888.22
2023-08-29T21:08:17.918Z,94893.00
2023-08-29T21:10:44.875Z,94885.53
2023-08-29T21:13:12.147Z,94888.19
2023-08-29T21:15:41.852Z,94884.44
2023-08-29T21:18:08.372Z,94877.19
2023-08-29T21:20:38.281Z,94884.63
2023-08-29T21:23:06.201Z,94886.19
2023-08-29T21:25:34.498Z,94875.72
2023-08-29T21:28:00.870Z,94874.59
2023-08-29T21:30:27.272Z,94874.59
2023-08-29T21:32:54.086Z,94874.31
2023-08-29T21:35:22.382Z,94874.00
2023-08-29T21:37:49.150Z,94886.00
2023-08-29T21:40:15.636Z,94879.06
2023-08-29T21:42:45.082Z,94873.22
2023-08-29T21:45:11.644Z,94869.00
2023-08-29T21:47:38.064Z,94863.13
2023-08-29T21:50:05.357Z,94864.13
2023-08-29T21:52:31.725Z,94868.19
2023-08-29T21:54:58.470Z,94874.59
2023-08-29T21:57:24.839Z,94868.44
2023-08-29T21:59:51.249Z,94869.28
2023-08-29T22:02:17.694Z,94867.38
2023-08-29T22:04:49.215Z,94862.28
2023-08-29T22:07:15.998Z,94869.19
2023-08-29T22:09:42.643Z,94863.81
2023-08-29T22:12:09.509Z,94859.75
2023-08-29T22:14:35.938Z,94859.03
2023-08-29T22:17:03.435Z,94859.06
2023-08-29T22:19:29.815Z,94863.94
2023-08-29T22:21:56.212Z,94857.50
2023-08-29T22:24:22.899Z,94866.00
2023-08-29T22:26:49.793Z,94860.16
2023-08-29T22:29:16.213Z,94863.09
2023-08-29T22:31:43.965Z,94869.22
2023-08-29T22:34:10.904Z,94864.69
2023-08-29T22:36:37.296Z,94863.09
2023-08-29T22:39:04.635Z,94871.34
2023-08-29T22:41:34.744Z,94871.56
2023-08-29T22:44:05.258Z,94868.63
2023-08-29T22:46:32.095Z,94871.03
2023-08-29T22:48:58.470Z,94871.34
2023-08-29T22:51:25.431Z,94872.44
2023-08-29T22:53:51.799Z,94880.97
2023-08-29T22:56:18.243Z,94876.44
2023-08-29T22:58:47.112Z,94876.69
2023-08-29T23:01:13.923Z,94885.47
2023-08-29T23:03:40.966Z,94885.25
2023-08-29T23:06:07.354Z,94884.66
2023-08-29T23:08:39.427Z,94882.22
2023-08-29T23:11:06.127Z,94889.38
2023-08-29T23:13:32.741Z,94885.16
2023-08-29T23:16:05.658Z,94893.13
2023-08-29T23:18:32.248Z,94890.75
2023-08-29T23:20:59.181Z,94893.63
2023-08-29T23:23:25.557Z,94891.81
2023-08-29T23:25:56.752Z,94892.31
2023-08-29T23:28:24.032Z,94892.88
2023-08-29T23:30:51.156Z,94891.81
2023-08-29T23:33:18.396Z,94899.56
2023-08-29T23:35:44.837Z,94898.25
2023-08-29T23:38:11.382Z,94894.81
2023-08-29T23:40:38.257Z,94894.81
2023-08-29T23:43:06.078Z,94890.81
2023-08-29T23:45:32.635Z,94892.19
2023-08-29T23:48:00.520Z,94882.09
2023-08-29T23:50:27.670Z,94889.53
2023-08-29T23:52:54.045Z,94884.47
2023-08-29T23:55:20.822Z,94880.47
2023-08-29T23:57:47.182Z,94883.13
